sensor_id;sensor_type;location;lat;lon;timestamp;pressure;altitude;pressure_sealevel;temperature;humidity
62057;BME280;48016;50.284;18.860;2022-11-15T00:02:24;98508.20;;;4.39;92.76
62057;BME280;48016;50.284;18.860;2022-11-15T00:04:50;98505.45;;;4.37;92.74
62057;BME280;48016;50.284;18.860;2022-11-15T00:07:18;98506.43;;;4.38;92.63
62057;BME280;48016;50.284;18.860;2022-11-15T00:09:45;98497.91;;;4.35;92.43
62057;BME280;48016;50.284;18.860;2022-11-15T00:12:11;98501.10;;;4.29;92.27
62057;BME280;48016;50.284;18.860;2022-11-15T00:14:38;98497.95;;;4.20;92.18
62057;BME280;48016;50.284;18.860;2022-11-15T00:17:05;98493.61;;;4.12;92.17
62057;BME280;48016;50.284;18.860;2022-11-15T00:19:31;98494.39;;;4.03;92.19
62057;BME280;48016;50.284;18.860;2022-11-15T00:21:58;98491.89;;;3.98;92.33
62057;BME280;48016;50.284;18.860;2022-11-15T00:24:25;98483.95;;;3.93;92.54
62057;BME280;48016;50.284;18.860;2022-11-15T00:26:52;98480.66;;;3.94;92.57
62057;BME280;48016;50.284;18.860;2022-11-15T00:29:18;98479.84;;;3.95;92.60
62057;BME280;48016;50.284;18.860;2022-11-15T00:31:45;98472.38;;;3.96;92.76
62057;BME280;48016;50.284;18.860;2022-11-15T00:34:12;98470.61;;;3.97;92.80
62057;BME280;48016;50.284;18.860;2022-11-15T00:36:39;98471.31;;;3.98;92.81
62057;BME280;48016;50.284;18.860;2022-11-15T00:39:05;98466.98;;;3.99;92.93
62057;BME280;48016;50.284;18.860;2022-11-15T00:41:32;98462.22;;;3.97;92.77
62057;BME280;48016;50.284;18.860;2022-11-15T00:43:58;98456.96;;;3.92;92.70
62057;BME280;48016;50.284;18.860;2022-11-15T00:46:25;98453.79;;;3.88;92.80
62057;BME280;48016;50.284;18.860;2022-11-15T00:48:52;98450.35;;;3.85;92.71
62057;BME280;48016;50.284;18.860;2022-11-15T00:51:18;98448.48;;;3.84;92.91
62057;BME280;48016;50.284;18.860;2022-11-15T00:53:45;98445.81;;;3.86;92.75
62057;BME280;48016;50.284;18.860;2022-11-15T00:56:12;98445.92;;;3.90;92.77
62057;BME280;48016;50.284;18.860;2022-11-15T00:58:38;98445.31;;;3.93;92.78
62057;BME280;48016;50.284;18.860;2022-11-15T01:01:13;98443.16;;;3.94;92.74
62057;BME280;48016;50.284;18.860;2022-11-15T01:03:41;98437.83;;;3.94;92.80
62057;BME280;48016;50.284;18.860;2022-11-15T01:06:09;98435.59;;;3.92;92.69
62057;BME280;48016;50.284;18.860;2022-11-15T01:08:35;98435.89;;;3.87;92.68
62057;BME280;48016;50.284;18.860;2022-11-15T01:11:05;98435.95;;;3.82;92.64
62057;BME280;48016;50.284;18.860;2022-11-15T01:13:37;98433.85;;;3.76;92.49
62057;BME280;48016;50.284;18.860;2022-11-15T01:16:09;98435.05;;;3.73;92.57
62057;BME280;48016;50.284;18.860;2022-11-15T01:18:36;98433.20;;;3.71;92.62
62057;BME280;48016;50.284;18.860;2022-11-15T01:21:11;98428.39;;;3.69;92.55
62057;BME280;48016;50.284;18.860;2022-11-15T01:23:38;98426.05;;;3.68;92.60
62057;BME280;48016;50.284;18.860;2022-11-15T01:26:09;98426.54;;;3.67;92.64
62057;BME280;48016;50.284;18.860;2022-11-15T01:28:38;98419.39;;;3.66;92.63
62057;BME280;48016;50.284;18.860;2022-11-15T01:31:09;98417.79;;;3.63;92.76
62057;BME280;48016;50.284;18.860;2022-11-15T01:33:36;98417.59;;;3.57;92.76
62057;BME280;48016;50.284;18.860;2022-11-15T01:36:04;98413.47;;;3.50;92.76
62057;BME280;48016;50.284;18.860;2022-11-15T01:38:32;98409.17;;;3.46;92.97
62057;BME280;48016;50.284;18.860;2022-11-15T01:40:59;98409.73;;;3.46;92.90
62057;BME280;48016;50.284;18.860;2022-11-15T01:43:32;98409.05;;;3.46;92.82
62057;BME280;48016;50.284;18.860;2022-11-15T01:46:24;98403.20;;;3.46;92.72
62057;BME280;48016;50.284;18.860;2022-11-15T01:48:51;98399.70;;;3.44;92.73
62057;BME280;48016;50.284;18.860;2022-11-15T01:51:20;98390.78;;;3.41;92.71
62057;BME280;48016;50.284;18.860;2022-11-15T01:53:50;98387.25;;;3.40;92.82
62057;BME280;48016;50.284;18.860;2022-11-15T01:56:22;98387.16;;;3.40;92.71
62057;BME280;48016;50.284;18.860;2022-11-15T01:58:50;98387.00;;;3.39;92.70
62057;BME280;48016;50.284;18.860;2022-11-15T02:01:17;98382.73;;;3.36;92.72
62057;BME280;48016;50.284;18.860;2022-11-15T02:06:12;98380.14;;;3.30;92.73
62057;BME280;48016;50.284;18.860;2022-11-15T02:08:38;98378.54;;;3.28;92.69
62057;BME280;48016;50.284;18.860;2022-11-15T02:11:08;98376.56;;;3.24;92.73
62057;BME280;48016;50.284;18.860;2022-11-15T02:13:36;98371.83;;;3.21;92.75
62057;BME280;48016;50.284;18.860;2022-11-15T02:21:58;98364.43;;;3.17;93.02
62057;BME280;48016;50.284;18.860;2022-11-15T02:28:04;98359.14;;;3.22;92.98
62057;BME280;48016;50.284;18.860;2022-11-15T02:36:41;98355.11;;;3.18;92.80
62057;BME280;48016;50.284;18.860;2022-11-15T02:39:21;98354.46;;;3.16;92.63
62057;BME280;48016;50.284;18.860;2022-11-15T02:41:53;98352.06;;;3.18;93.02
62057;BME280;48016;50.284;18.860;2022-11-15T02:44:27;98346.73;;;3.18;92.72
62057;BME280;48016;50.284;18.860;2022-11-15T02:47:09;98347.72;;;3.16;92.73
62057;BME280;48016;50.284;18.860;2022-11-15T02:49:45;98344.27;;;3.14;92.76
62057;BME280;48016;50.284;18.860;2022-11-15T02:52:18;98338.98;;;3.13;92.71
62057;BME280;48016;50.284;18.860;2022-11-15T02:54:55;98340.48;;;3.10;92.73
62057;BME280;48016;50.284;18.860;2022-11-15T02:57:37;98336.29;;;3.09;92.88
62057;BME280;48016;50.284;18.860;2022-11-15T03:00:12;98334.59;;;3.09;92.83
62057;BME280;48016;50.284;18.860;2022-11-15T03:02:55;98330.94;;;3.07;92.86
62057;BME280;48016;50.284;18.860;2022-11-15T03:05:39;98327.16;;;3.07;92.97
62057;BME280;48016;50.284;18.860;2022-11-15T03:13:31;98324.86;;;3.02;92.69
62057;BME280;48016;50.284;18.860;2022-11-15T03:18:58;98318.41;;;2.99;92.72
62057;BME280;48016;50.284;18.860;2022-11-15T03:21:30;98310.49;;;2.97;92.68
62057;BME280;48016;50.284;18.860;2022-11-15T03:24:01;98312.38;;;2.94;92.73
62057;BME280;48016;50.284;18.860;2022-11-15T03:26:29;98313.02;;;2.90;92.69
62057;BME280;48016;50.284;18.860;2022-11-15T03:29:03;98306.30;;;2.87;92.87
62057;BME280;48016;50.284;18.860;2022-11-15T03:31:35;98304.94;;;2.84;92.74
62057;BME280;48016;50.284;18.860;2022-11-15T03:37:02;98297.30;;;2.75;92.80
62057;BME280;48016;50.284;18.860;2022-11-15T03:39:31;98294.63;;;2.74;92.95
62057;BME280;48016;50.284;18.860;2022-11-15T03:44:36;98287.06;;;2.70;93.08
62057;BME280;48016;50.284;18.860;2022-11-15T03:47:29;98281.97;;;2.68;92.97
62057;BME280;48016;50.284;18.860;2022-11-15T03:50:18;98284.06;;;2.67;93.28
62057;BME280;48016;50.284;18.860;2022-11-15T03:52:47;98284.84;;;2.68;93.40
62057;BME280;48016;50.284;18.860;2022-11-15T03:55:19;98286.86;;;2.67;93.44
62057;BME280;48016;50.284;18.860;2022-11-15T03:57:47;98285.17;;;2.67;93.51
62057;BME280;48016;50.284;18.860;2022-11-15T04:00:16;98283.99;;;2.66;93.65
62057;BME280;48016;50.284;18.860;2022-11-15T04:02:43;98281.20;;;2.67;93.56
62057;BME280;48016;50.284;18.860;2022-11-15T04:05:10;98272.61;;;2.69;93.65
62057;BME280;48016;50.284;18.860;2022-11-15T04:07:36;98273.17;;;2.71;93.50
62057;BME280;48016;50.284;18.860;2022-11-15T04:10:05;98269.58;;;2.72;93.44
62057;BME280;48016;50.284;18.860;2022-11-15T04:12:33;98272.23;;;2.74;93.48
62057;BME280;48016;50.284;18.860;2022-11-15T04:20:14;98265.88;;;2.78;93.38
62057;BME280;48016;50.284;18.860;2022-11-15T04:23:02;98260.41;;;2.79;93.43
62057;BME280;48016;50.284;18.860;2022-11-15T04:25:55;98258.16;;;2.82;93.55
62057;BME280;48016;50.284;18.860;2022-11-15T04:28:22;98255.67;;;2.83;93.51
62057;BME280;48016;50.284;18.860;2022-11-15T04:30:50;98258.51;;;2.85;93.56
62057;BME280;48016;50.284;18.860;2022-11-15T04:33:17;98257.16;;;2.88;93.49
62057;BME280;48016;50.284;18.860;2022-11-15T04:35:43;98255.44;;;2.87;93.34
62057;BME280;48016;50.284;18.860;2022-11-15T04:38:10;98257.65;;;2.88;93.30
62057;BME280;48016;50.284;18.860;2022-11-15T04:40:37;98253.05;;;2.88;93.16
62057;BME280;48016;50.284;18.860;2022-11-15T04:43:04;98252.36;;;2.87;93.18
62057;BME280;48016;50.284;18.860;2022-11-15T04:45:31;98246.12;;;2.87;93.14
62057;BME280;48016;50.284;18.860;2022-11-15T04:47:57;98244.17;;;2.90;93.16
62057;BME280;48016;50.284;18.860;2022-11-15T04:50:24;98247.67;;;2.90;93.05
62057;BME280;48016;50.284;18.860;2022-11-15T04:52:52;98244.67;;;2.90;92.98
62057;BME280;48016;50.284;18.860;2022-11-15T04:55:20;98243.44;;;2.90;93.12
62057;BME280;48016;50.284;18.860;2022-11-15T04:57:47;98241.34;;;2.88;92.94
62057;BME280;48016;50.284;18.860;2022-11-15T05:00:16;98237.84;;;2.87;92.89
62057;BME280;48016;50.284;18.860;2022-11-15T05:02:43;98237.16;;;2.85;92.88
62057;BME280;48016;50.284;18.860;2022-11-15T05:05:28;98238.07;;;2.83;92.82
62057;BME280;48016;50.284;18.860;2022-11-15T05:07:55;98230.39;;;2.80;92.97
62057;BME280;48016;50.284;18.860;2022-11-15T05:10:22;98225.77;;;2.80;93.15
62057;BME280;48016;50.284;18.860;2022-11-15T05:12:49;98221.30;;;2.80;93.14
62057;BME280;48016;50.284;18.860;2022-11-15T05:15:15;98222.00;;;2.79;92.93
62057;BME280;48016;50.284;18.860;2022-11-15T05:17:42;98219.50;;;2.78;92.91
62057;BME280;48016;50.284;18.860;2022-11-15T05:20:09;98214.08;;;2.76;93.00
62057;BME280;48016;50.284;18.860;2022-11-15T05:22:36;98212.98;;;2.75;92.90
62057;BME280;48016;50.284;18.860;2022-11-15T05:25:03;98208.70;;;2.73;92.83
62057;BME280;48016;50.284;18.860;2022-11-15T05:27:30;98205.55;;;2.73;93.09
62057;BME280;48016;50.284;18.860;2022-11-15T05:29:56;98202.01;;;2.76;93.23
62057;BME280;48016;50.284;18.860;2022-11-15T05:32:25;98196.50;;;2.77;93.09
62057;BME280;48016;50.284;18.860;2022-11-15T05:34:52;98191.41;;;2.76;92.99
62057;BME280;48016;50.284;18.860;2022-11-15T05:37:19;98190.63;;;2.75;92.87
62057;BME280;48016;50.284;18.860;2022-11-15T05:39:45;98185.45;;;2.74;92.96
62057;BME280;48016;50.284;18.860;2022-11-15T05:42:14;98181.55;;;2.74;93.00
62057;BME280;48016;50.284;18.860;2022-11-15T05:44:46;98181.80;;;2.74;92.95
62057;BME280;48016;50.284;18.860;2022-11-15T05:47:19;98178.89;;;2.73;92.68
62057;BME280;48016;50.284;18.860;2022-11-15T05:49:49;98180.49;;;2.73;92.86
62057;BME280;48016;50.284;18.860;2022-11-15T05:52:21;98181.42;;;2.72;92.81
62057;BME280;48016;50.284;18.860;2022-11-15T05:54:49;98183.52;;;2.71;92.87
62057;BME280;48016;50.284;18.860;2022-11-15T05:57:16;98182.42;;;2.70;92.62
62057;BME280;48016;50.284;18.860;2022-11-15T05:59:43;98182.59;;;2.66;92.50
62057;BME280;48016;50.284;18.860;2022-11-15T06:02:10;98182.14;;;2.65;92.53
62057;BME280;48016;50.284;18.860;2022-11-15T06:04:37;98184.60;;;2.64;92.63
62057;BME280;48016;50.284;18.860;2022-11-15T06:07:04;98183.21;;;2.63;92.49
62057;BME280;48016;50.284;18.860;2022-11-15T06:09:30;98188.99;;;2.62;92.38
62057;BME280;48016;50.284;18.860;2022-11-15T06:11:57;98188.69;;;2.63;92.58
62057;BME280;48016;50.284;18.860;2022-11-15T06:14:24;98189.57;;;2.64;92.35
62057;BME280;48016;50.284;18.860;2022-11-15T06:16:50;98190.52;;;2.64;92.32
62057;BME280;48016;50.284;18.860;2022-11-15T06:19:17;98189.92;;;2.63;92.19
62057;BME280;48016;50.284;18.860;2022-11-15T06:21:43;98188.76;;;2.63;92.07
62057;BME280;48016;50.284;18.860;2022-11-15T06:24:10;98189.54;;;2.62;92.18
62057;BME280;48016;50.284;18.860;2022-11-15T06:26:37;98193.68;;;2.66;92.19
62057;BME280;48016;50.284;18.860;2022-11-15T06:29:04;98195.14;;;2.70;92.31
62057;BME280;48016;50.284;18.860;2022-11-15T06:31:31;98196.48;;;2.73;91.99
62057;BME280;48016;50.284;18.860;2022-11-15T06:33:59;98198.02;;;2.65;91.30
62057;BME280;48016;50.284;18.860;2022-11-15T06:36:26;98200.41;;;2.59;91.58
62057;BME280;48016;50.284;18.860;2022-11-15T06:38:52;98203.21;;;2.53;91.57
62057;BME280;48016;50.284;18.860;2022-11-15T06:41:19;98204.85;;;2.50;91.64
62057;BME280;48016;50.284;18.860;2022-11-15T06:43:47;98206.08;;;2.52;91.98
62057;BME280;48016;50.284;18.860;2022-11-15T06:46:13;98211.79;;;2.53;91.99
62057;BME280;48016;50.284;18.860;2022-11-15T06:48:40;98207.89;;;2.54;92.16
62057;BME280;48016;50.284;18.860;2022-11-15T06:51:07;98204.56;;;2.59;92.13
62057;BME280;48016;50.284;18.860;2022-11-15T06:53:34;98206.78;;;2.66;92.20
62057;BME280;48016;50.284;18.860;2022-11-15T06:56:04;98210.96;;;2.75;92.08
62057;BME280;48016;50.284;18.860;2022-11-15T06:58:33;98211.65;;;2.79;91.97
62057;BME280;48016;50.284;18.860;2022-11-15T07:01:05;98212.64;;;2.81;91.87
62057;BME280;48016;50.284;18.860;2022-11-15T07:03:39;98211.92;;;2.85;91.93
62057;BME280;48016;50.284;18.860;2022-11-15T07:06:07;98209.59;;;2.90;91.91
62057;BME280;48016;50.284;18.860;2022-11-15T07:08:35;98208.79;;;2.98;92.03
62057;BME280;48016;50.284;18.860;2022-11-15T07:11:04;98205.71;;;3.01;91.86
62057;BME280;48016;50.284;18.860;2022-11-15T07:13:32;98206.97;;;3.03;91.89
62057;BME280;48016;50.284;18.860;2022-11-15T07:16:07;98204.27;;;3.07;91.94
62057;BME280;48016;50.284;18.860;2022-11-15T07:18:36;98204.85;;;3.15;92.04
62057;BME280;48016;50.284;18.860;2022-11-15T07:21:05;98204.09;;;3.26;91.98
62057;BME280;48016;50.284;18.860;2022-11-15T07:23:33;98204.79;;;3.39;92.06
62057;BME280;48016;50.284;18.860;2022-11-15T07:26:00;98203.55;;;3.49;91.96
62057;BME280;48016;50.284;18.860;2022-11-15T07:28:27;98202.44;;;3.59;91.86
62057;BME280;48016;50.284;18.860;2022-11-15T07:30:54;98197.60;;;3.68;91.66
62057;BME280;48016;50.284;18.860;2022-11-15T07:33:21;98194.98;;;3.80;91.83
62057;BME280;48016;50.284;18.860;2022-11-15T07:35:48;98195.84;;;3.95;91.71
62057;BME280;48016;50.284;18.860;2022-11-15T07:38:16;98195.54;;;4.10;91.55
62057;BME280;48016;50.284;18.860;2022-11-15T07:40:46;98194.27;;;4.22;91.43
62057;BME280;48016;50.284;18.860;2022-11-15T07:43:13;98199.21;;;4.28;90.56
62057;BME280;48016;50.284;18.860;2022-11-15T07:45:44;98200.15;;;4.31;90.49
62057;BME280;48016;50.284;18.860;2022-11-15T07:48:11;98199.96;;;4.38;90.90
62057;BME280;48016;50.284;18.860;2022-11-15T07:50:41;98199.55;;;4.49;90.83
62057;BME280;48016;50.284;18.860;2022-11-15T07:53:09;98200.08;;;4.59;90.69
62057;BME280;48016;50.284;18.860;2022-11-15T07:55:39;98200.58;;;4.64;90.44
62057;BME280;48016;50.284;18.860;2022-11-15T07:58:08;98199.05;;;4.73;90.58
62057;BME280;48016;50.284;18.860;2022-11-15T08:00:36;98196.73;;;4.86;90.67
62057;BME280;48016;50.284;18.860;2022-11-15T08:03:08;98193.48;;;5.00;90.53
62057;BME280;48016;50.284;18.860;2022-11-15T08:05:36;98189.95;;;5.12;90.24
62057;BME280;48016;50.284;18.860;2022-11-15T08:08:04;98182.75;;;5.25;90.30
62057;BME280;48016;50.284;18.860;2022-11-15T08:10:31;98181.14;;;5.40;90.26
62057;BME280;48016;50.284;18.860;2022-11-15T08:13:03;98181.05;;;5.53;90.06
62057;BME280;48016;50.284;18.860;2022-11-15T08:15:31;98175.93;;;5.64;89.69
62057;BME280;48016;50.284;18.860;2022-11-15T08:17:59;98175.55;;;5.73;89.71
62057;BME280;48016;50.284;18.860;2022-11-15T08:20:27;98173.73;;;5.79;89.90
62057;BME280;48016;50.284;18.860;2022-11-15T08:23:02;98173.42;;;5.88;89.62
62057;BME280;48016;50.284;18.860;2022-11-15T08:25:31;98174.59;;;5.96;89.23
62057;BME280;48016;50.284;18.860;2022-11-15T08:28:02;98177.76;;;6.06;89.17
62057;BME280;48016;50.284;18.860;2022-11-15T08:30:29;98177.91;;;6.17;89.01
62057;BME280;48016;50.284;18.860;2022-11-15T08:32:58;98174.47;;;6.27;88.74
62057;BME280;48016;50.284;18.860;2022-11-15T08:35:25;98173.60;;;6.35;88.66
62057;BME280;48016;50.284;18.860;2022-11-15T08:37:53;98174.77;;;6.45;88.64
62057;BME280;48016;50.284;18.860;2022-11-15T08:40:20;98173.33;;;6.55;88.43
62057;BME280;48016;50.284;18.860;2022-11-15T08:42:47;98172.48;;;6.62;88.22
62057;BME280;48016;50.284;18.860;2022-11-15T08:45:14;98171.33;;;6.70;87.95
62057;BME280;48016;50.284;18.860;2022-11-15T08:47:41;98170.73;;;6.79;88.05
62057;BME280;48016;50.284;18.860;2022-11-15T08:50:08;98170.35;;;6.89;87.92
62057;BME280;48016;50.284;18.860;2022-11-15T08:52:35;98168.45;;;7.00;87.72
62057;BME280;48016;50.284;18.860;2022-11-15T08:55:02;98169.38;;;7.10;87.92
62057;BME280;48016;50.284;18.860;2022-11-15T08:57:29;98167.48;;;7.20;87.34
62057;BME280;48016;50.284;18.860;2022-11-15T08:59:59;98163.46;;;7.30;87.50
62057;BME280;48016;50.284;18.860;2022-11-15T09:02:25;98161.02;;;7.42;87.38
62057;BME280;48016;50.284;18.860;2022-11-15T09:04:52;98165.20;;;7.54;87.13
62057;BME280;48016;50.284;18.860;2022-11-15T09:07:19;98162.32;;;7.65;86.96
62057;BME280;48016;50.284;18.860;2022-11-15T09:09:45;98158.80;;;7.75;86.43
62057;BME280;48016;50.284;18.860;2022-11-15T09:12:12;98156.73;;;7.81;86.16
62057;BME280;48016;50.284;18.860;2022-11-15T09:14:38;98153.14;;;7.85;85.93
62057;BME280;48016;50.284;18.860;2022-11-15T09:17:09;98155.74;;;7.89;85.62
62057;BME280;48016;50.284;18.860;2022-11-15T09:19:35;98149.55;;;7.95;85.58
62057;BME280;48016;50.284;18.860;2022-11-15T09:22:06;98141.77;;;8.05;85.69
62057;BME280;48016;50.284;18.860;2022-11-15T09:24:34;98136.11;;;8.14;84.91
62057;BME280;48016;50.284;18.860;2022-11-15T09:27:01;98139.91;;;8.22;85.24
62057;BME280;48016;50.284;18.860;2022-11-15T09:29:27;98135.41;;;8.31;85.47
62057;BME280;48016;50.284;18.860;2022-11-15T09:31:54;98139.16;;;8.40;85.15
62057;BME280;48016;50.284;18.860;2022-11-15T09:34:21;98131.25;;;8.47;84.53
62057;BME280;48016;50.284;18.860;2022-11-15T09:36:47;98133.44;;;8.52;83.99
62057;BME280;48016;50.284;18.860;2022-11-15T09:39:14;98130.13;;;8.62;84.00
62057;BME280;48016;50.284;18.860;2022-11-15T09:42:18;98125.94;;;8.70;83.67
62057;BME280;48016;50.284;18.860;2022-11-15T09:45:14;98116.64;;;8.80;83.47
62057;BME280;48016;50.284;18.860;2022-11-15T09:50:28;98094.55;;;9.09;83.89
62057;BME280;48016;50.284;18.860;2022-11-15T09:52:57;98091.00;;;9.23;83.63
62057;BME280;48016;50.284;18.860;2022-11-15T09:55:47;98089.73;;;9.34;83.51
62057;BME280;48016;50.284;18.860;2022-11-15T09:58:39;98078.89;;;9.48;83.28
62057;BME280;48016;50.284;18.860;2022-11-15T10:01:18;98082.34;;;9.64;82.87
62057;BME280;48016;50.284;18.860;2022-11-15T10:03:49;98079.70;;;9.80;82.48
62057;BME280;48016;50.284;18.860;2022-11-15T10:06:23;98074.93;;;9.95;82.17
62057;BME280;48016;50.284;18.860;2022-11-15T10:09:00;98072.95;;;10.08;81.62
62057;BME280;48016;50.284;18.860;2022-11-15T10:11:31;98073.92;;;10.15;81.32
62057;BME280;48016;50.284;18.860;2022-11-15T10:14:23;98069.25;;;10.26;81.33
62057;BME280;48016;50.284;18.860;2022-11-15T10:24:46;98068.30;;;10.73;80.77
62057;BME280;48016;50.284;18.860;2022-11-15T10:27:18;98061.42;;;10.81;80.59
62057;BME280;48016;50.284;18.860;2022-11-15T10:29:49;98058.80;;;10.87;80.39
62057;BME280;48016;50.284;18.860;2022-11-15T10:32:20;98059.83;;;10.93;80.01
62057;BME280;48016;50.284;18.860;2022-11-15T10:34:49;98058.55;;;10.96;80.05
62057;BME280;48016;50.284;18.860;2022-11-15T10:37:28;98054.70;;;10.97;79.60
62057;BME280;48016;50.284;18.860;2022-11-15T10:40:05;98059.30;;;10.96;79.21
62057;BME280;48016;50.284;18.860;2022-11-15T10:42:32;98058.64;;;10.95;78.97
62057;BME280;48016;50.284;18.860;2022-11-15T10:44:59;98049.95;;;10.98;78.98
62057;BME280;48016;50.284;18.860;2022-11-15T10:47:28;98046.90;;;10.96;79.01
62057;BME280;48016;50.284;18.860;2022-11-15T10:49:59;98046.89;;;10.92;78.50
62057;BME280;48016;50.284;18.860;2022-11-15T10:52:27;98047.09;;;10.90;78.63
62057;BME280;48016;50.284;18.860;2022-11-15T10:57:31;98046.42;;;10.86;78.47
62057;BME280;48016;50.284;18.860;2022-11-15T11:00:03;98040.52;;;10.85;78.64
62057;BME280;48016;50.284;18.860;2022-11-15T11:04:57;98029.14;;;10.82;78.47
62057;BME280;48016;50.284;18.860;2022-11-15T11:07:27;98028.99;;;10.81;78.28
62057;BME280;48016;50.284;18.860;2022-11-15T11:10:00;98033.52;;;10.81;78.14
62057;BME280;48016;50.284;18.860;2022-11-15T11:12:34;98029.54;;;10.84;77.80
62057;BME280;48016;50.284;18.860;2022-11-15T11:15:09;98030.65;;;10.91;77.93
62057;BME280;48016;50.284;18.860;2022-11-15T11:20:28;98023.91;;;10.94;77.80
62057;BME280;48016;50.284;18.860;2022-11-15T11:29:24;98014.91;;;11.04;76.90
62057;BME280;48016;50.284;18.860;2022-11-15T11:32:05;98009.04;;;11.08;77.23
62057;BME280;48016;50.284;18.860;2022-11-15T11:40:35;97995.59;;;11.41;77.66
62057;BME280;48016;50.284;18.860;2022-11-15T11:49:12;97988.64;;;11.88;76.63
62057;BME280;48016;50.284;18.860;2022-11-15T11:51:45;97981.59;;;11.96;76.25
62057;BME280;48016;50.284;18.860;2022-11-15T11:54:30;97981.59;;;12.01;75.70
62057;BME280;48016;50.284;18.860;2022-11-15T11:56:58;97976.23;;;12.08;75.51
62057;BME280;48016;50.284;18.860;2022-11-15T11:59:43;97972.38;;;12.14;74.97
62057;BME280;48016;50.284;18.860;2022-11-15T12:02:27;97971.50;;;12.24;75.06
62057;BME280;48016;50.284;18.860;2022-11-15T12:05:15;97963.02;;;12.29;75.09
62057;BME280;48016;50.284;18.860;2022-11-15T12:07:45;97956.67;;;12.35;74.72
62057;BME280;48016;50.284;18.860;2022-11-15T12:10:28;97948.80;;;12.38;74.72
62057;BME280;48016;50.284;18.860;2022-11-15T12:15:32;97944.55;;;12.41;74.07
62057;BME280;48016;50.284;18.860;2022-11-15T12:18:01;97940.05;;;12.42;73.75
62057;BME280;48016;50.284;18.860;2022-11-15T12:20:37;97944.45;;;12.42;73.72
62057;BME280;48016;50.284;18.860;2022-11-15T12:23:17;97936.41;;;12.42;73.36
62057;BME280;48016;50.284;18.860;2022-11-15T12:25:50;97931.02;;;12.38;72.75
62057;BME280;48016;50.284;18.860;2022-11-15T12:30:59;97933.30;;;12.36;73.10
62057;BME280;48016;50.284;18.860;2022-11-15T12:33:39;97931.55;;;12.37;73.32
62057;BME280;48016;50.284;18.860;2022-11-15T12:36:38;97928.02;;;12.38;73.34
62057;BME280;48016;50.284;18.860;2022-11-15T12:39:10;97924.46;;;12.37;73.25
62057;BME280;48016;50.284;18.860;2022-11-15T12:41:38;97922.02;;;12.35;73.38
62057;BME280;48016;50.284;18.860;2022-11-15T12:44:15;97920.89;;;12.35;73.25
62057;BME280;48016;50.284;18.860;2022-11-15T13:02:27;97890.86;;;12.30;73.49
62057;BME280;48016;50.284;18.860;2022-11-15T13:07:54;97885.85;;;12.26;73.53
62057;BME280;48016;50.284;18.860;2022-11-15T13:10:33;97885.56;;;12.25;73.59
62057;BME280;48016;50.284;18.860;2022-11-15T13:13:07;97881.13;;;12.23;73.87
62057;BME280;48016;50.284;18.860;2022-11-15T13:15:56;97878.54;;;12.18;73.88
62057;BME280;48016;50.284;18.860;2022-11-15T13:18:32;97877.75;;;12.12;73.72
62057;BME280;48016;50.284;18.860;2022-11-15T13:21:00;97879.44;;;12.08;73.81
62057;BME280;48016;50.284;18.860;2022-11-15T13:23:27;97875.39;;;12.03;73.86
62057;BME280;48016;50.284;18.860;2022-11-15T13:31:28;97881.46;;;11.86;74.09
62057;BME280;48016;50.284;18.860;2022-11-15T13:33:59;97877.08;;;11.79;74.28
62057;BME280;48016;50.284;18.860;2022-11-15T13:36:32;97873.30;;;11.73;74.48
62057;BME280;48016;50.284;18.860;2022-11-15T13:39:06;97870.05;;;11.69;74.54
62057;BME280;48016;50.284;18.860;2022-11-15T13:41:47;97869.77;;;11.67;74.69
62057;BME280;48016;50.284;18.860;2022-11-15T13:44:33;97866.15;;;11.66;74.88
62057;BME280;48016;50.284;18.860;2022-11-15T13:47:06;97869.19;;;11.64;74.97
62057;BME280;48016;50.284;18.860;2022-11-15T13:49:34;97864.09;;;11.64;74.99
62057;BME280;48016;50.284;18.860;2022-11-15T13:52:01;97865.13;;;11.62;74.97
62057;BME280;48016;50.284;18.860;2022-11-15T13:54:31;97861.98;;;11.59;74.91
62057;BME280;48016;50.284;18.860;2022-11-15T13:57:05;97854.95;;;11.55;75.04
62057;BME280;48016;50.284;18.860;2022-11-15T13:59:36;97856.25;;;11.49;75.25
62057;BME280;48016;50.284;18.860;2022-11-15T14:02:11;97851.77;;;11.46;75.27
62057;BME280;48016;50.284;18.860;2022-11-15T14:04:39;97849.33;;;11.43;75.30
62057;BME280;48016;50.284;18.860;2022-11-15T14:07:15;97845.48;;;11.38;75.41
62057;BME280;48016;50.284;18.860;2022-11-15T14:09:42;97845.52;;;11.32;75.36
62057;BME280;48016;50.284;18.860;2022-11-15T14:12:30;97847.97;;;11.27;75.47
62057;BME280;48016;50.284;18.860;2022-11-15T14:14:59;97848.40;;;11.20;75.77
62057;BME280;48016;50.284;18.860;2022-11-15T14:19:56;97845.05;;;11.10;75.96
62057;BME280;48016;50.284;18.860;2022-11-15T14:22:23;97838.65;;;11.04;76.02
62057;BME280;48016;50.284;18.860;2022-11-15T14:27:37;97837.34;;;10.93;76.17
62057;BME280;48016;50.284;18.860;2022-11-15T14:30:04;97836.08;;;10.87;76.31
62057;BME280;48016;50.284;18.860;2022-11-15T14:32:39;97832.77;;;10.81;76.32
62057;BME280;48016;50.284;18.860;2022-11-15T14:35:17;97832.98;;;10.74;76.59
62057;BME280;48016;50.284;18.860;2022-11-15T14:37:44;97833.06;;;10.69;76.72
62057;BME280;48016;50.284;18.860;2022-11-15T14:40:13;97833.22;;;10.64;76.86
62057;BME280;48016;50.284;18.860;2022-11-15T14:42:40;97826.39;;;10.58;77.01
62057;BME280;48016;50.284;18.860;2022-11-15T14:45:11;97823.84;;;10.54;77.15
62057;BME280;48016;50.284;18.860;2022-11-15T14:47:38;97824.42;;;10.49;77.31
62057;BME280;48016;50.284;18.860;2022-11-15T14:50:05;97817.50;;;10.44;77.45
62057;BME280;48016;50.284;18.860;2022-11-15T14:52:32;97814.08;;;10.40;77.53
62057;BME280;48016;50.284;18.860;2022-11-15T14:55:03;97811.69;;;10.38;77.64
62057;BME280;48016;50.284;18.860;2022-11-15T14:57:30;97810.06;;;10.37;77.71
62057;BME280;48016;50.284;18.860;2022-11-15T14:59:57;97803.38;;;10.36;77.91
62057;BME280;48016;50.284;18.860;2022-11-15T15:02:24;97803.69;;;10.36;78.17
62057;BME280;48016;50.284;18.860;2022-11-15T15:04:51;97798.94;;;10.37;78.34